Time;durP1;ratioP1;P1;durP2;ratioP2;P2;SDS_P1;SDS_P2;PMS_P1;PMS_P2;Temp;Humidity;BMP_temperature;BMP_pressure;BME280_temperature;BME280_humidity;BME280_pressure;Samples;Min_cycle;Max_cycle;Signal;HPM_P1;HPM_P2
2020/12/18 00:00:05;;;;;;;10.60;9.03;;;;;;;5.09;96.85;97554.59;5013202;28;20271;-73
2020/12/18 00:02:31;;;;;;;11.33;9.10;;;;;;;5.04;97.86;97554.31;5012070;28;20190;-73
2020/12/18 00:04:56;;;;;;;10.53;9.10;;;;;;;5.10;97.36;97556.22;5013115;28;20187;-73
2020/12/18 00:07:23;;;;;;;11.77;9.77;;;;;;;5.09;97.38;97562.41;5011778;28;20193;-73
2020/12/18 00:09:48;;;;;;;11.23;9.00;;;;;;;4.96;97.61;97556.94;5012945;28;20210;-73
2020/12/18 00:12:13;;;;;;;9.93;8.50;;;;;;;4.92;98.08;97558.28;5012862;28;20191;-74
2020/12/18 00:14:39;;;;;;;9.80;8.23;;;;;;;4.90;97.63;97560.25;5011558;28;20179;-73
2020/12/18 00:17:05;;;;;;;11.50;8.87;;;;;;;4.89;97.53;97563.84;5012703;28;20669;-73
2020/12/18 00:19:31;;;;;;;10.10;7.60;;;;;;;4.89;97.94;97561.25;5012012;28;20266;-73
2020/12/18 00:21:57;;;;;;;9.53;7.70;;;;;;;4.85;97.62;97562.53;5012372;28;20265;-73
2020/12/18 00:24:23;;;;;;;9.17;7.80;;;;;;;4.90;97.59;97560.25;4995349;28;20279;-72
2020/12/18 00:26:48;;;;;;;8.73;7.37;;;;;;;4.87;97.76;97558.81;5012708;28;20622;-72
2020/12/18 00:29:13;;;;;;;9.13;7.13;;;;;;;4.82;98.28;97560.28;5012968;28;20254;-73
2020/12/18 00:31:39;;;;;;;9.40;7.47;;;;;;;4.86;98.80;97551.19;5011738;28;20573;-73
2020/12/18 00:34:04;;;;;;;10.47;8.07;;;;;;;4.78;98.96;97559.84;5012566;28;20194;-73
2020/12/18 00:36:30;;;;;;;8.60;7.33;;;;;;;4.78;99.03;97559.03;5010372;28;20582;-72
2020/12/18 00:38:55;;;;;;;8.53;7.50;;;;;;;4.74;99.12;97560.31;5011789;28;20548;-74
2020/12/18 00:41:21;;;;;;;8.67;7.70;;;;;;;4.79;99.40;97561.44;5010213;28;20179;-73
2020/12/18 00:43:46;;;;;;;9.10;7.80;;;;;;;4.78;100.00;97557.25;5012037;28;20659;-73
2020/12/18 00:46:11;;;;;;;11.07;7.93;;;;;;;4.83;100.00;97560.13;5012624;28;20183;-73
2020/12/18 00:48:37;;;;;;;10.57;8.07;;;;;;;4.88;100.00;97557.81;5011298;28;20207;-74
2020/12/18 00:51:03;;;;;;;9.30;8.00;;;;;;;4.97;100.00;97559.38;5011895;28;20182;-72
2020/12/18 00:53:29;;;;;;;10.07;8.03;;;;;;;5.04;100.00;97556.91;5011480;28;20694;-73
2020/12/18 00:55:54;;;;;;;11.83;8.60;;;;;;;4.93;100.00;97552.94;5011278;28;20188;-73
2020/12/18 00:58:20;;;;;;;11.10;8.17;;;;;;;4.97;100.00;97561.16;5011399;28;20190;-72
2020/12/18 01:00:45;;;;;;;9.67;8.10;;;;;;;5.00;100.00;97560.84;5011704;28;20187;-72
2020/12/18 01:03:11;;;;;;;9.13;8.13;;;;;;;4.98;100.00;97562.78;5011849;28;20192;-72
2020/12/18 01:05:36;;;;;;;9.33;8.33;;;;;;;4.99;100.00;97567.81;5011284;28;20187;-71
2020/12/18 01:08:02;;;;;;;11.40;8.80;;;;;;;4.99;100.00;97577.41;5012105;28;20210;-71
2020/12/18 01:10:28;;;;;;;8.70;7.77;;;;;;;4.97;100.00;97579.34;5010471;28;20231;-72
2020/12/18 01:12:53;;;;;;;13.33;9.40;;;;;;;5.00;100.00;97581.63;5016517;28;20257;-72
2020/12/18 01:15:18;;;;;;;11.37;8.40;;;;;;;5.04;100.00;97582.88;5011439;28;20604;-72
2020/12/18 01:17:44;;;;;;;10.63;7.90;;;;;;;5.00;100.00;97581.63;5001216;28;20183;-72
2020/12/18 01:20:09;;;;;;;10.00;7.67;;;;;;;5.00;100.00;97576.44;5012183;28;20189;-72
2020/12/18 01:22:35;;;;;;;10.97;8.10;;;;;;;5.07;100.00;97579.16;5010610;28;20275;-72
2020/12/18 01:25:01;;;;;;;9.27;7.40;;;;;;;5.06;100.00;97580.13;5011698;28;20225;-72
2020/12/18 01:27:26;;;;;;;11.33;8.57;;;;;;;5.19;100.00;97578.56;5011286;28;20274;-72
2020/12/18 01:29:51;;;;;;;11.27;8.70;;;;;;;5.14;100.00;97574.88;5011445;28;20217;-72
2020/12/18 01:32:17;;;;;;;12.13;8.93;;;;;;;5.31;100.00;97579.78;5011530;28;20659;-72
2020/12/18 01:34:44;;;;;;;12.87;8.43;;;;;;;5.42;100.00;97581.97;5010547;28;20221;-71
2020/12/18 01:37:11;;;;;;;10.03;7.80;;;;;;;5.62;99.83;97587.50;5011467;28;20227;-71
2020/12/18 01:39:36;;;;;;;10.10;8.37;;;;;;;5.58;99.89;97594.03;5011100;28;20194;-70
2020/12/18 01:42:02;;;;;;;11.93;8.47;;;;;;;5.57;99.84;97587.22;5017715;28;20187;-71
2020/12/18 01:44:27;;;;;;;9.80;8.27;;;;;;;5.55;100.00;97597.00;5010943;28;20238;-72
2020/12/18 01:46:53;;;;;;;8.60;7.73;;;;;;;5.55;99.50;97598.78;5011136;28;20607;-72
2020/12/18 01:49:18;;;;;;;9.27;8.30;;;;;;;5.37;100.00;97591.28;5012393;28;20207;-72
2020/12/18 01:51:45;;;;;;;9.80;8.10;;;;;;;5.38;100.00;97591.09;5010746;28;20274;-72
2020/12/18 01:54:10;;;;;;;10.33;8.00;;;;;;;5.57;100.00;97589.03;5011601;28;20183;-72
2020/12/18 01:56:36;;;;;;;10.63;8.00;;;;;;;5.60;100.00;97594.66;5009889;28;20179;-72
2020/12/18 01:59:02;;;;;;;9.50;8.23;;;;;;;5.48;99.33;97596.06;5010558;28;20222;-72
2020/12/18 02:01:27;;;;;;;8.83;7.30;;;;;;;5.53;99.37;97595.53;5010678;28;20271;-72
2020/12/18 02:03:54;;;;;;;11.80;7.73;;;;;;;5.47;98.97;97584.03;5011335;28;20219;-72
2020/12/18 02:06:21;;;;;;;9.17;7.47;;;;;;;5.46;98.26;97590.25;5012551;28;20282;-72
2020/12/18 02:08:49;;;;;;;8.53;7.63;;;;;;;5.44;98.30;97579.19;5014695;28;20207;-72
2020/12/18 02:11:23;;;;;;;10.97;7.57;;;;;;;5.39;98.57;97576.31;5014700;28;20218;-72
2020/12/18 02:13:52;;;;;;;9.63;7.67;;;;;;;5.40;97.33;97577.94;5015369;28;20184;-72
2020/12/18 02:16:19;;;;;;;9.30;8.07;;;;;;;5.38;97.08;97583.31;5015039;28;20187;-72
2020/12/18 02:18:46;;;;;;;10.17;7.70;;;;;;;5.27;97.90;97575.09;5014023;28;20877;-72
2020/12/18 02:21:11;;;;;;;11.23;8.43;;;;;;;5.22;98.07;97577.41;5029245;28;20356;-72
2020/12/18 02:23:55;;;;;;;9.83;8.03;;;;;;;5.16;98.70;97572.91;5014254;28;20274;-72
2020/12/18 02:26:21;;;;;;;10.03;8.27;;;;;;;5.22;98.16;97575.63;5014749;28;20195;-72
2020/12/18 02:28:46;;;;;;;9.73;8.27;;;;;;;5.30;98.42;97570.34;5013898;28;20253;-72
2020/12/18 02:31:12;;;;;;;9.93;8.57;;;;;;;5.18;98.03;97569.16;5014715;28;20603;-72
2020/12/18 02:33:40;;;;;;;11.57;8.47;;;;;;;5.13;98.68;97571.44;5013951;28;20183;-72
2020/12/18 02:36:06;;;;;;;12.87;8.50;;;;;;;5.17;97.85;97566.75;5013875;28;20689;-72
2020/12/18 02:38:33;;;;;;;11.37;8.10;;;;;;;4.99;98.84;97570.41;5013576;28;20195;-72
2020/12/18 02:40:58;;;;;;;9.63;8.47;;;;;;;5.09;98.44;97564.19;5014259;28;20233;-72
2020/12/18 02:43:24;;;;;;;11.50;8.20;;;;;;;5.14;97.86;97564.47;5013441;28;20591;-72
2020/12/18 02:45:50;;;;;;;10.37;8.43;;;;;;;5.09;98.13;97557.19;5013849;28;20187;-72
2020/12/18 02:48:16;;;;;;;10.20;8.63;;;;;;;5.02;98.54;97546.69;5014398;28;20662;-72
2020/12/18 02:50:41;;;;;;;14.40;8.57;;;;;;;5.10;98.05;97555.41;5013477;28;20184;-72
2020/12/18 02:53:15;;;;;;;16.83;9.30;;;;;;;5.13;98.28;97545.47;5014535;28;20222;-72
2020/12/18 02:55:41;;;;;;;11.23;8.73;;;;;;;4.99;98.71;97551.44;5013322;28;20242;-72
2020/12/18 02:58:10;;;;;;;11.20;9.43;;;;;;;5.23;97.87;97553.88;5014781;28;20722;-72
2020/12/18 03:00:36;;;;;;;12.57;9.50;;;;;;;5.14;97.61;97554.06;4991326;28;20183;-71
2020/12/18 03:03:03;;;;;;;11.47;8.90;;;;;;;5.01;98.49;97554.66;5014169;28;20195;-71
2020/12/18 03:05:29;;;;;;;10.20;9.07;;;;;;;4.96;98.51;97554.34;5013273;28;20192;-72
2020/12/18 03:07:54;;;;;;;11.67;8.83;;;;;;;5.00;98.28;97559.06;5014314;28;20187;-71
2020/12/18 03:10:20;;;;;;;10.37;8.67;;;;;;;4.82;99.11;97568.09;5014115;28;20196;-71
2020/12/18 03:12:46;;;;;;;12.07;8.80;;;;;;;4.72;99.77;97564.91;5013025;28;20222;-72
2020/12/18 03:15:11;;;;;;;10.53;8.50;;;;;;;4.78;100.00;97557.25;5014041;28;20194;-72
2020/12/18 03:17:36;;;;;;;11.10;9.07;;;;;;;4.96;98.61;97557.75;5012145;28;20187;-72
2020/12/18 03:20:03;;;;;;;11.60;9.73;;;;;;;5.04;97.52;97556.91;5014456;28;20636;-72
2020/12/18 03:22:28;;;;;;;11.30;8.93;;;;;;;4.97;97.88;97558.56;5012894;28;20179;-72
2020/12/18 03:24:53;;;;;;;10.00;8.90;;;;;;;4.97;98.23;97556.78;5013612;28;20201;-73
2020/12/18 03:27:19;;;;;;;10.77;8.80;;;;;;;5.08;99.20;97559.97;5013775;28;20214;-72
2020/12/18 03:29:44;;;;;;;10.63;8.77;;;;;;;5.15;98.43;97559.09;5012149;28;20274;-72
2020/12/18 03:32:09;;;;;;;12.17;8.27;;;;;;;5.18;98.54;97556.19;5013648;28;20176;-72
2020/12/18 03:34:35;;;;;;;9.97;8.40;;;;;;;5.21;97.40;97561.00;5012818;28;20215;-73
2020/12/18 03:37:00;;;;;;;13.63;8.70;;;;;;;5.07;97.70;97559.16;5013057;28;20231;-72
2020/12/18 03:39:25;;;;;;;8.80;7.90;;;;;;;5.09;97.66;97564.19;5012654;28;20267;-73
2020/12/18 03:41:51;;;;;;;9.37;7.90;;;;;;;5.02;98.22;97561.47;5012885;28;20195;-72
2020/12/18 03:44:17;;;;;;;11.77;8.23;;;;;;;5.13;97.80;97565.44;5013644;28;20191;-72
2020/12/18 03:46:42;;;;;;;10.80;8.20;;;;;;;5.14;97.38;97562.69;5012761;28;20210;-72
2020/12/18 03:49:07;;;;;;;11.03;7.60;;;;;;;5.22;97.09;97567.03;5012506;28;20333;-72
2020/12/18 03:51:33;;;;;;;8.63;7.63;;;;;;;5.19;96.73;97567.34;5011380;28;20179;-73
2020/12/18 03:53:58;;;;;;;8.90;7.90;;;;;;;5.25;96.93;97559.69;5013052;28;20646;-73
2020/12/18 03:56:23;;;;;;;7.87;7.07;;;;;;;5.43;96.15;97555.00;5013330;28;20184;-73
2020/12/18 03:58:49;;;;;;;9.73;8.07;;;;;;;5.40;96.62;97559.75;5011417;28;20238;-72
2020/12/18 04:01:14;;;;;;;10.07;7.90;;;;;;;5.49;96.02;97556.09;5013165;28;20241;-72
2020/12/18 04:03:40;;;;;;;10.30;8.10;;;;;;;5.70;95.15;97552.81;5011388;28;20210;-73
2020/12/18 04:06:05;;;;;;;9.53;8.27;;;;;;;5.63;95.46;97550.09;5020145;28;20274;-72
2020/12/18 04:08:30;;;;;;;9.77;8.30;;;;;;;5.62;95.22;97558.09;5011827;28;20580;-73
2020/12/18 04:10:56;;;;;;;10.47;8.60;;;;;;;5.69;95.11;97551.19;5012810;28;20194;-72
2020/12/18 04:13:21;;;;;;;9.80;8.47;;;;;;;5.65;95.63;97547.34;4996274;28;20187;-73
2020/12/18 04:15:47;;;;;;;8.93;8.03;;;;;;;5.65;95.83;97545.53;5011830;28;20257;-73
2020/12/18 04:18:13;;;;;;;9.87;7.80;;;;;;;5.70;95.74;97545.81;5012919;28;20186;-73
2020/12/18 04:20:38;;;;;;;9.87;8.10;;;;;;;5.74;95.69;97543.69;5011541;28;20196;-72
2020/12/18 04:23:05;;;;;;;10.63;8.33;;;;;;;5.76;95.36;97534.72;5012457;28;20203;-73
2020/12/18 04:25:30;;;;;;;10.13;8.20;;;;;;;6.02;94.30;97539.50;5011942;28;20188;-73
2020/12/18 04:27:56;;;;;;;10.23;8.00;;;;;;;5.89;94.88;97541.94;5012804;28;20183;-72
2020/12/18 04:30:21;;;;;;;9.07;7.63;;;;;;;6.00;94.49;97538.09;5012362;28;20701;-72
2020/12/18 04:32:47;;;;;;;10.43;8.63;;;;;;;5.89;94.57;97534.13;5011511;28;20778;-72
2020/12/18 04:35:12;;;;;;;9.67;7.90;;;;;;;5.95;94.42;97532.63;5012493;28;20191;-72
2020/12/18 04:37:38;;;;;;;9.63;7.97;;;;;;;5.93;94.34;97524.97;5011732;28;20245;-72
2020/12/18 04:40:03;;;;;;;10.97;8.00;;;;;;;5.86;94.71;97529.25;5012789;28;20191;-72
2020/12/18 04:42:33;;;;;;;10.63;8.10;;;;;;;5.79;94.98;97518.75;5011769;28;20191;-72
2020/12/18 04:45:00;;;;;;;9.67;7.97;;;;;;;5.83;95.01;97511.41;5012311;28;20282;-72
2020/12/18 04:47:26;;;;;;;10.57;7.63;;;;;;;5.95;94.34;97507.41;5012649;28;20194;-72
2020/12/18 04:49:54;;;;;;;10.03;9.00;;;;;;;5.99;94.21;97513.03;5011760;28;20211;-72
2020/12/18 04:52:22;;;;;;;10.70;8.33;;;;;;;5.74;95.54;97512.47;5011666;28;20178;-72
2020/12/18 04:54:48;;;;;;;9.90;8.37;;;;;;;5.90;94.47;97504.53;5010932;28;20694;-72
2020/12/18 04:57:16;;;;;;;10.67;7.97;;;;;;;5.81;95.04;97505.56;5024259;28;20219;-73
2020/12/18 04:59:43;;;;;;;9.73;7.93;;;;;;;5.75;95.49;97514.88;5009064;28;20598;-73
2020/12/18 05:02:09;;;;;;;9.23;7.60;;;;;;;5.90;94.92;97511.53;5011336;28;20851;-73
2020/12/18 05:04:40;;;;;;;10.37;7.60;;;;;;;5.83;94.74;97514.81;5011261;28;20187;-72
2020/12/18 05:07:05;;;;;;;8.73;7.67;;;;;;;5.98;94.46;97522.63;5012368;28;20198;-73
2020/12/18 05:09:31;;;;;;;8.67;7.50;;;;;;;6.10;93.73;97526.41;5011711;28;20219;-73
2020/12/18 05:12:07;;;;;;;8.57;7.33;;;;;;;6.00;94.02;97523.28;5011562;28;20284;-73
2020/12/18 05:14:33;;;;;;;8.63;7.40;;;;;;;5.94;94.83;97533.59;4997365;28;20179;-73
2020/12/18 05:17:06;;;;;;;8.53;7.63;;;;;;;5.93;94.61;97529.38;5011829;28;20515;-73
2020/12/18 05:19:39;;;;;;;9.17;7.60;;;;;;;6.03;94.41;97528.13;5011527;28;20193;-73
2020/12/18 05:22:06;;;;;;;8.63;6.80;;;;;;;5.88;94.46;97539.50;5011615;28;20178;-73
2020/12/18 05:24:33;;;;;;;9.10;6.97;;;;;;;5.82;94.72;97528.78;5011331;28;20186;-72
2020/12/18 05:26:59;;;;;;;9.10;7.20;;;;;;;6.05;93.55;97522.75;5011754;28;20199;-72
2020/12/18 05:29:26;;;;;;;8.07;7.23;;;;;;;6.07;92.83;97521.59;5011637;28;20293;-73
2020/12/18 05:31:55;;;;;;;9.10;8.20;;;;;;;6.13;92.58;97522.66;5010984;28;20435;-72
2020/12/18 05:34:20;;;;;;;9.10;7.93;;;;;;;5.93;93.09;97524.97;4996628;28;20210;-72
2020/12/18 05:36:46;;;;;;;8.27;7.30;;;;;;;5.93;93.31;97518.97;5010455;28;20281;-73
2020/12/18 05:39:13;;;;;;;7.43;6.73;;;;;;;5.74;94.19;97513.25;4982883;28;20282;-73
2020/12/18 05:41:42;;;;;;;9.93;7.57;;;;;;;5.91;92.89;97521.72;4996559;28;20186;-73
2020/12/18 05:44:07;;;;;;;10.77;7.43;;;;;;;5.79;93.52;97513.56;5014515;28;20237;-74
2020/12/18 05:46:34;;;;;;;9.33;7.90;;;;;;;5.81;92.55;97513.38;5014038;28;20175;-73
2020/12/18 05:49:05;;;;;;;9.67;7.30;;;;;;;5.75;92.15;97509.69;5015135;28;20726;-72
2020/12/18 05:51:41;;;;;;;9.30;7.23;;;;;;;5.81;90.45;97513.38;5014535;28;20721;-73
2020/12/18 05:54:07;;;;;;;8.70;7.27;;;;;;;5.63;90.94;97515.50;5002255;28;20222;-72
2020/12/18 05:56:33;;;;;;;8.83;7.93;;;;;;;5.46;92.34;97522.66;5014249;28;20254;-73
2020/12/18 05:59:16;;;;;;;8.40;7.23;;;;;;;5.54;91.37;97535.56;5015299;28;20191;-73
2020/12/18 06:01:44;;;;;;;8.77;6.97;;;;;;;5.17;93.71;97546.75;5006064;28;20179;-73
2020/12/18 06:04:21;;;;;;;9.07;7.80;;;;;;;5.23;94.01;97548.66;5002379;28;20190;-73
2020/12/18 06:06:55;;;;;;;8.90;7.90;;;;;;;5.10;95.28;97540.63;5014350;28;20183;-73
2020/12/18 06:09:28;;;;;;;9.17;7.60;;;;;;;5.22;95.14;97549.66;5014504;28;20683;-74
2020/12/18 06:11:54;;;;;;;10.73;8.73;;;;;;;5.36;94.78;97555.84;5011414;28;20683;-74
2020/12/18 06:14:21;;;;;;;11.33;7.97;;;;;;;5.20;95.93;97553.38;5014485;28;20274;-73
2020/12/18 06:16:53;;;;;;;9.50;8.00;;;;;;;5.22;96.49;97543.63;5008441;28;20190;-72
2020/12/18 06:19:21;;;;;;;11.47;8.00;;;;;;;5.12;97.25;97543.06;5007784;28;20187;-72
2020/12/18 06:21:54;;;;;;;8.90;7.60;;;;;;;5.04;97.86;97546.53;5005206;28;20223;-73
2020/12/18 06:24:20;;;;;;;11.27;7.60;;;;;;;5.29;96.48;97547.97;5006228;28;20183;-75
2020/12/18 06:26:46;;;;;;;9.27;8.07;;;;;;;5.11;97.08;97549.25;5010313;28;20179;-75
2020/12/18 06:29:17;;;;;;;9.13;8.00;;;;;;;5.25;97.05;97546.69;5014765;28;20204;-74
2020/12/18 06:31:42;;;;;;;9.87;7.83;;;;;;;5.23;96.88;97540.88;5012742;28;20172;-74
2020/12/18 06:34:10;;;;;;;7.93;7.13;;;;;;;5.18;96.60;97542.38;5006584;28;20642;-75
2020/12/18 06:36:47;;;;;;;13.00;8.20;;;;;;;5.15;97.71;97550.50;5008836;28;20225;-75
2020/12/18 06:39:34;;;;;;;10.30;7.97;;;;;;;5.24;97.09;97549.47;5014286;28;20312;-76
2020/12/18 06:42:20;;;;;;;9.50;7.57;;;;;;;5.27;96.98;97547.34;5008656;28;20643;-78
2020/12/18 06:44:47;;;;;;;8.60;7.13;;;;;;;5.36;95.95;97550.66;5013677;28;20180;-77
2020/12/18 06:47:24;;;;;;;8.53;7.20;;;;;;;5.49;95.60;97544.88;5014779;28;20206;-77
2020/12/18 06:49:58;;;;;;;8.93;7.23;;;;;;;5.50;95.37;97551.69;5012368;28;20195;-77
2020/12/18 06:52:46;;;;;;;7.83;7.03;;;;;;;5.57;95.16;97550.84;5014695;28;20171;-75
2020/12/18 06:55:28;;;;;;;10.53;7.50;;;;;;;5.47;95.44;97550.25;5014664;28;20184;-74
2020/12/18 06:58:05;;;;;;;9.50;7.90;;;;;;;5.59;95.19;97546.25;5008864;28;20702;-74
2020/12/18 07:00:33;;;;;;;8.97;7.77;;;;;;;5.75;93.96;97547.88;5013246;28;20249;-72
2020/12/18 07:02:58;;;;;;;9.97;7.77;;;;;;;5.57;94.50;97550.84;5011504;28;20195;-73
2020/12/18 07:05:28;;;;;;;8.90;7.33;;;;;;;5.74;93.77;97541.88;5013284;28;20619;-74
2020/12/18 07:07:57;;;;;;;8.97;8.07;;;;;;;5.72;93.46;97540.44;5026796;28;20196;-75
2020/12/18 07:10:31;;;;;;;9.20;7.80;;;;;;;5.67;94.16;97545.38;5012783;28;20672;-74
2020/12/18 07:12:59;;;;;;;9.07;7.67;;;;;;;5.73;93.70;97532.47;5013242;28;20172;-73
2020/12/18 07:15:45;;;;;;;8.60;7.60;;;;;;;5.64;94.42;97538.72;5013921;28;20179;-73
2020/12/18 07:18:19;;;;;;;8.60;6.90;;;;;;;5.63;93.83;97539.69;5008957;28;20175;-73
2020/12/18 07:20:49;;;;;;;8.83;7.33;;;;;;;5.71;94.11;97539.63;5011856;28;20179;-72
2020/12/18 07:23:15;;;;;;;8.27;7.37;;;;;;;5.76;93.34;97534.72;5014100;28;20644;-74
2020/12/18 07:25:41;;;;;;;8.80;7.70;;;;;;;5.72;93.66;97546.47;5012113;28;20714;-74
2020/12/18 07:28:06;;;;;;;8.37;7.43;;;;;;;5.67;93.96;97538.38;5013421;28;20192;-74
2020/12/18 07:30:36;;;;;;;8.40;7.50;;;;;;;5.63;94.16;97534.50;5012555;28;20199;-72
2020/12/18 07:33:02;;;;;;;9.80;7.23;;;;;;;5.68;94.14;97542.59;5012496;28;20329;-75
2020/12/18 07:35:27;;;;;;;8.67;7.43;;;;;;;5.69;94.00;97543.38;5000583;28;20942;-76
2020/12/18 07:37:53;;;;;;;9.43;8.00;;;;;;;5.75;94.00;97534.88;4989407;28;20191;-75
2020/12/18 07:40:18;;;;;;;8.37;7.57;;;;;;;5.79;93.37;97533.56;5013799;28;20274;-79
2020/12/18 07:42:44;;;;;;;8.53;7.63;;;;;;;5.90;92.68;97540.97;5011954;28;20183;-75
2020/12/18 07:45:09;;;;;;;9.17;7.73;;;;;;;5.98;92.46;97537.44;5013464;28;20179;-73
2020/12/18 07:47:38;;;;;;;10.77;8.83;;;;;;;5.97;92.52;97538.41;5012294;28;20259;-74
2020/12/18 07:50:08;;;;;;;9.93;8.03;;;;;;;5.99;92.56;97541.66;5005921;28;20226;-74
2020/12/18 07:52:34;;;;;;;9.33;8.17;;;;;;;6.04;92.57;97540.16;5006765;28;20198;-74
2020/12/18 07:55:00;;;;;;;8.03;7.20;;;;;;;6.16;91.51;97546.53;5008053;28;20194;-74
2020/12/18 07:57:26;;;;;;;8.60;7.60;;;;;;;6.13;91.52;97535.66;5019468;28;20543;-75
2020/12/18 08:00:08;;;;;;;8.10;7.30;;;;;;;6.17;91.13;97542.13;5009592;28;20777;-73
2020/12/18 08:02:34;;;;;;;9.83;7.27;;;;;;;6.26;90.67;97541.84;5004725;28;20183;-73
2020/12/18 08:05:00;;;;;;;8.23;7.17;;;;;;;6.23;90.82;97534.41;5014206;28;20188;-73
2020/12/18 08:07:29;;;;;;;8.93;7.10;;;;;;;6.39;90.27;97525.59;5015086;28;20183;-73
2020/12/18 08:10:02;;;;;;;8.20;7.30;;;;;;;6.44;89.66;97545.88;5001560;28;20207;-73
2020/12/18 08:12:29;;;;;;;9.90;7.80;;;;;;;6.41;89.76;97539.22;5012244;28;20179;-74
2020/12/18 08:15:08;;;;;;;10.37;7.30;;;;;;;6.25;90.44;97548.03;4998204;28;20188;-73
2020/12/18 08:17:34;;;;;;;8.37;7.27;;;;;;;6.26;90.46;97528.81;5011506;28;20636;-80
2020/12/18 08:20:04;;;;;;;8.10;7.00;;;;;;;6.42;89.79;97542.63;5012566;28;20186;-78
2020/12/18 08:22:36;;;;;;;7.37;6.67;;;;;;;6.43;89.99;97547.66;5012701;28;20285;-76
2020/12/18 08:25:03;;;;;;;9.07;7.30;;;;;;;6.61;88.54;97547.28;5005310;28;20179;-77
2020/12/18 08:27:34;;;;;;;8.30;7.50;;;;;;;6.57;88.93;97548.66;5010252;28;20198;-76
2020/12/18 08:30:01;;;;;;;8.13;7.30;;;;;;;6.78;88.16;97550.47;5012328;28;20195;-78
2020/12/18 08:32:31;;;;;;;8.83;7.80;;;;;;;6.65;88.49;97548.53;5012537;28;20218;-82
2020/12/18 08:35:05;;;;;;;8.47;7.67;;;;;;;6.71;88.62;97550.41;5011275;28;20195;-77
2020/12/18 08:37:30;;;;;;;8.17;7.20;;;;;;;6.92;87.08;97541.81;5011287;28;20218;-75
2020/12/18 08:39:56;;;;;;;9.07;7.87;;;;;;;6.59;88.64;97544.03;5013226;28;20277;-75
2020/12/18 08:42:22;;;;;;;8.10;7.27;;;;;;;6.94;87.26;97543.25;5012765;28;20218;-75
2020/12/18 08:44:48;;;;;;;9.17;7.60;;;;;;;7.07;86.46;97550.41;5011985;28;20179;-75
2020/12/18 08:47:24;;;;;;;8.97;7.53;;;;;;;7.05;86.03;97554.97;5012073;28;20191;-76
2020/12/18 08:49:51;;;;;;;10.27;8.23;;;;;;;6.99;86.33;97551.31;5010482;28;20663;-74
2020/12/18 08:52:25;;;;;;;8.43;7.50;;;;;;;6.93;86.48;97553.84;5012226;28;20606;-73
2020/12/18 08:55:00;;;;;;;9.63;8.20;;;;;;;6.85;87.20;97549.56;5011154;28;20245;-74
2020/12/18 08:57:30;;;;;;;9.20;8.23;;;;;;;7.07;86.52;97547.78;5011931;28;20183;-76
2020/12/18 09:00:10;;;;;;;8.03;7.23;;;;;;;7.15;86.35;97552.06;5011307;28;20187;-73
2020/12/18 09:02:47;;;;;;;9.23;7.17;;;;;;;7.09;86.33;97543.19;4984776;28;20206;-77
2020/12/18 09:05:22;;;;;;;10.00;7.90;;;;;;;7.21;85.94;97546.09;5010259;28;20554;-77
2020/12/18 09:08:00;;;;;;;8.87;7.40;;;;;;;7.28;86.04;97552.19;5011139;28;20170;-79
2020/12/18 09:10:29;;;;;;;8.07;6.83;;;;;;;7.32;85.92;97548.22;5011697;28;20204;-77
2020/12/18 09:12:55;;;;;;;7.63;6.77;;;;;;;7.39;85.54;97549.09;5010928;28;20187;-78
2020/12/18 09:15:22;;;;;;;8.47;7.40;;;;;;;7.55;85.55;97541.00;5010928;28;20195;-78
2020/12/18 09:17:59;;;;;;;7.90;7.10;;;;;;;7.59;84.54;97546.63;5004442;28;20659;-79
2020/12/18 09:20:27;;;;;;;8.93;7.43;;;;;;;7.49;85.30;97545.16;5006624;28;20183;-79
2020/12/18 09:22:54;;;;;;;11.70;8.13;;;;;;;7.59;85.50;97551.84;5010355;28;20175;-73
2020/12/18 09:25:20;;;;;;;7.83;6.97;;;;;;;7.59;85.72;97544.84;5011863;28;20550;-77
2020/12/18 09:27:54;;;;;;;8.40;7.50;;;;;;;7.81;84.44;97543.78;5010608;28;21683;-76
2020/12/18 09:30:31;;;;;;;9.23;7.23;;;;;;;7.74;84.90;97542.97;5006728;28;20702;-76
2020/12/18 09:33:18;;;;;;;8.17;7.10;;;;;;;7.81;85.16;97546.41;5004261;28;20175;-75
2020/12/18 09:35:44;;;;;;;8.40;7.60;;;;;;;7.96;84.36;97543.72;4999296;28;20265;-76
2020/12/18 09:38:10;;;;;;;9.00;7.33;;;;;;;7.92;83.86;97532.84;5011530;28;20184;-76
2020/12/18 09:40:36;;;;;;;7.87;7.10;;;;;;;7.94;83.72;97533.47;5020239;28;20187;-75
2020/12/18 09:43:02;;;;;;;8.00;7.20;;;;;;;8.09;83.94;97533.34;5011201;28;20662;-76
2020/12/18 09:45:28;;;;;;;8.80;7.90;;;;;;;7.91;85.02;97533.81;5011640;28;20175;-75
2020/12/18 09:47:53;;;;;;;12.57;7.97;;;;;;;8.01;84.09;97540.53;5010890;28;20183;-76
2020/12/18 09:50:19;;;;;;;8.87;8.00;;;;;;;7.80;84.48;97538.78;5011283;28;20273;-76
2020/12/18 09:52:44;;;;;;;9.23;8.00;;;;;;;7.77;85.52;97533.94;5010696;28;20180;-76
2020/12/18 09:55:10;;;;;;;10.80;8.63;;;;;;;7.77;85.99;97539.97;5011211;28;20570;-76
2020/12/18 09:57:35;;;;;;;10.67;8.17;;;;;;;7.78;86.51;97538.97;5009870;28;20190;-74
2020/12/18 10:00:05;;;;;;;9.03;8.03;;;;;;;7.64;87.18;97528.59;5011590;28;20199;-74
2020/12/18 10:02:30;;;;;;;10.37;8.00;;;;;;;7.72;86.57;97529.28;5010558;28;20214;-75
2020/12/18 10:04:56;;;;;;;12.27;8.57;;;;;;;7.76;86.77;97525.28;5015395;28;20258;-74
2020/12/18 10:07:22;;;;;;;8.57;7.67;;;;;;;7.82;85.62;97531.56;5011497;28;20184;-74
2020/12/18 10:09:47;;;;;;;9.43;8.40;;;;;;;7.97;85.21;97523.63;5009567;28;20667;-74
2020/12/18 10:12:13;;;;;;;9.17;8.10;;;;;;;7.98;85.67;97523.44;5016068;28;20191;-75
2020/12/18 10:14:38;;;;;;;10.97;8.27;;;;;;;7.99;85.65;97521.63;5010379;28;20286;-74
2020/12/18 10:17:04;;;;;;;7.90;7.10;;;;;;;8.23;84.75;97515.94;5011544;28;20180;-75
2020/12/18 10:19:30;;;;;;;11.67;7.93;;;;;;;8.38;83.60;97521.06;5010628;28;20195;-73
2020/12/18 10:21:55;;;;;;;8.03;7.23;;;;;;;8.41;82.76;97513.66;5010160;28;20635;-75
2020/12/18 10:24:20;;;;;;;9.20;7.97;;;;;;;8.23;83.45;97518.56;5010721;28;20219;-74
2020/12/18 10:26:48;;;;;;;9.57;8.00;;;;;;;8.36;83.38;97520.47;5010782;28;20190;-74
2020/12/18 10:29:13;;;;;;;8.50;7.70;;;;;;;8.14;83.75;97523.13;5014577;28;20207;-74
2020/12/18 10:31:39;;;;;;;7.70;7.00;;;;;;;8.21;84.18;97525.75;5013501;28;20191;-74
2020/12/18 10:34:04;;;;;;;8.90;6.80;;;;;;;8.40;83.30;97514.66;5014381;28;20643;-74
2020/12/18 10:36:30;;;;;;;8.40;7.43;;;;;;;8.38;83.40;97515.84;5014281;28;20281;-73
2020/12/18 10:38:56;;;;;;;8.23;7.13;;;;;;;8.42;82.60;97510.03;5013754;28;20669;-75
2020/12/18 10:41:21;;;;;;;8.23;7.03;;;;;;;8.38;83.22;97511.41;5014530;28;20187;-75
2020/12/18 10:43:47;;;;;;;8.13;7.20;;;;;;;8.55;82.59;97509.28;5013415;28;20191;-75
2020/12/18 10:46:12;;;;;;;7.50;6.70;;;;;;;8.52;82.70;97510.50;5014402;28;20202;-75
2020/12/18 10:48:38;;;;;;;9.23;7.20;;;;;;;8.66;84.00;97499.06;5013260;28;20187;-74
2020/12/18 10:51:03;;;;;;;7.30;6.70;;;;;;;8.55;83.79;97499.63;5014218;28;20187;-75
2020/12/18 10:53:29;;;;;;;7.17;6.47;;;;;;;8.79;82.67;97494.88;5014022;28;20195;-73
2020/12/18 10:55:54;;;;;;;7.23;6.43;;;;;;;8.72;82.44;97493.06;5013626;28;20187;-75
2020/12/18 10:58:20;;;;;;;8.50;6.90;;;;;;;8.79;82.08;97493.06;5013624;28;20186;-76
2020/12/18 11:00:45;;;;;;;9.83;6.57;;;;;;;8.72;82.44;97494.84;5013209;28;20238;-75
2020/12/18 11:03:11;;;;;;;8.00;6.27;;;;;;;8.70;82.96;97481.97;5014108;28;20698;-76
2020/12/18 11:05:36;;;;;;;10.10;7.60;;;;;;;9.03;81.93;97483.84;5012843;28;20183;-75
2020/12/18 11:08:01;;;;;;;10.10;7.20;;;;;;;8.99;82.48;97478.22;5014036;28;20187;-75
2020/12/18 11:10:27;;;;;;;8.93;7.73;;;;;;;8.99;82.27;97473.00;5013889;28;20195;-75
2020/12/18 11:12:52;;;;;;;10.10;7.73;;;;;;;8.97;82.05;97471.59;5012531;28;20195;-71
2020/12/18 11:15:18;;;;;;;9.30;7.50;;;;;;;8.99;82.69;97467.75;5013973;28;20191;-75
2020/12/18 11:17:44;;;;;;;10.70;7.97;;;;;;;9.14;82.40;97468.38;5013081;28;20191;-76
2020/12/18 11:20:11;;;;;;;9.23;7.67;;;;;;;9.18;82.10;97466.19;5012719;28;20220;-76
2020/12/18 11:22:36;;;;;;;10.07;7.83;;;;;;;9.25;81.48;97464.34;5012316;28;20183;-74
2020/12/18 11:25:04;;;;;;;9.90;7.80;;;;;;;9.23;81.77;97466.38;5012729;28;20190;-75
2020/12/18 11:27:30;;;;;;;10.33;7.97;;;;;;;9.15;82.67;97458.72;5011797;28;20624;-74
2020/12/18 11:29:56;;;;;;;10.20;7.73;;;;;;;9.32;81.77;97470.41;5007528;28;20277;-75
2020/12/18 11:32:21;;;;;;;10.20;8.17;;;;;;;9.34;81.26;97462.34;5010371;28;20195;-76
2020/12/18 11:34:47;;;;;;;8.93;7.40;;;;;;;9.44;80.77;97453.09;5012811;28;20195;-73
2020/12/18 11:37:12;;;;;;;8.93;7.27;;;;;;;9.42;80.61;97452.47;5007219;28;20266;-73
2020/12/18 11:39:38;;;;;;;13.20;7.50;;;;;;;9.47;80.50;97460.53;4988291;28;20551;-73